CheckWX is a tool to help pilots better visualize weather data.  It is not intended as a substitute for an official pre-flight weather briefing.

12:19:03 UTC

KSAA METAR
Shively Field Airport
Saratoga, Wyoming, USA
Current

24 mins ago

KSAA 251155Z AUTO 30004KT 10SM OVC021 M12/M15 A3021 RMK AO2
Observed
Feb-25 @ 11:55 UTC
Wind
  • 300° at 4 KTS
Visibility
10 SM
Flight Rules
MVFR
Cloud Levels
  • Overcast at 2,100' AGL
Temperature
-12°C / 10°F
Dewpoint
-15°C / 5°F
Humidity
79%
Altimeter
30.21" Hg
Pressure
1023.02 hPa
Previous

44 mins ago

KSAA 251135Z AUTO 31003KT 10SM OVC021 M11/M14 A3020 RMK AO2
Observed
Feb-25 @ 11:35 UTC
Wind
  • 310° at 3 KTS
Visibility
10 SM
Flight Rules
MVFR
Cloud Levels
  • Overcast at 2,100' AGL
Temperature
-11°C / 12°F
Dewpoint
-14°C / 7°F
Humidity
79%
Altimeter
30.2" Hg
Pressure
1022.72 hPa
Previous

1 hour ago

KSAA 251115Z AUTO 32004KT 10SM OVC023 M11/M14 A3018 RMK AO2
Observed
Feb-25 @ 11:15 UTC
Wind
  • 320° at 4 KTS
Visibility
10 SM
Flight Rules
MVFR
Cloud Levels
  • Overcast at 2,300' AGL
Temperature
-11°C / 12°F
Dewpoint
-14°C / 7°F
Humidity
79%
Altimeter
30.18" Hg
Pressure
1022.02 hPa